Time;durP1;ratioP1;P1;durP2;ratioP2;P2;SDS_P1;SDS_P2;PMS_P1;PMS_P2;Temp;Humidity;BMP_temperature;BMP_pressure;BME280_temperature;BME280_humidity;BME280_pressure;Samples;Min_cycle;Max_cycle;Signal;HPM_P1;HPM_P2
2022/12/24 00:02:18;;;;;;;11.53;4.10;;;16.80;62.60;17.80;99918.00;;;;5029093;28;20203;-47
2022/12/24 00:04:43;;;;;;;11.40;4.60;;;16.80;62.10;17.80;99902.00;;;;5029718;28;20225;-48
2022/12/24 00:07:09;;;;;;;8.80;4.37;;;16.80;62.00;17.80;99918.00;;;;5029608;28;20533;-46
2022/12/24 00:09:35;;;;;;;9.37;4.10;;;16.70;61.90;17.80;99922.00;;;;5029381;28;20704;-47
2022/12/24 00:12:01;;;;;;;10.40;4.80;;;16.80;61.90;17.80;99828.00;;;;5028654;28;20835;-47
2022/12/24 00:14:26;;;;;;;10.37;4.40;;;16.70;61.70;17.50;99861.00;;;;5029535;28;20169;-46
2022/12/24 00:16:52;;;;;;;11.30;4.80;;;16.60;61.90;17.80;99925.00;;;;5029466;28;20179;-46
2022/12/24 00:19:18;;;;;;;10.23;4.28;;;16.70;61.90;17.80;99809.00;;;;4976162;28;1072609;-48
2022/12/24 00:21:43;;;;;;;10.37;4.40;;;16.70;62.00;17.80;99867.00;;;;5029579;28;20224;-46
2022/12/24 00:24:09;;;;;;;9.23;4.00;;;16.70;61.90;17.80;99949.00;;;;5029861;28;20201;-46
2022/12/24 00:26:35;;;;;;;8.43;4.40;;;16.70;61.90;17.70;99946.00;;;;5030055;28;20221;-47
2022/12/24 00:29:01;;;;;;;10.07;4.33;;;16.70;62.00;17.80;99861.00;;;;5030169;28;20271;-46
2022/12/24 00:31:27;;;;;;;11.57;4.50;;;16.70;61.90;17.80;99967.00;;;;5012936;28;20731;-46
2022/12/24 00:33:52;;;;;;;12.40;4.80;;;16.70;62.00;17.70;99972.00;;;;5029023;28;20565;-46
2022/12/24 00:36:18;;;;;;;10.37;4.30;;;16.60;61.80;17.70;99946.00;;;;5029305;28;20166;-46
2022/12/24 00:38:44;;;;;;;11.10;4.43;;;16.60;61.90;17.70;99969.00;;;;5029417;28;20225;-45
2022/12/24 00:41:27;;;;;;;12.00;4.40;;;16.60;61.90;17.70;99938.00;;;;5028682;28;20225;-46
2022/12/24 00:44:09;;;;;;;10.60;4.40;;;16.60;61.90;17.70;99925.00;;;;5029399;28;20160;-46
2022/12/24 00:46:35;;;;;;;12.43;5.27;;;16.50;61.90;17.70;99941.00;;;;5028753;28;20162;-46
2022/12/24 00:49:01;;;;;;;11.50;4.40;;;16.60;61.90;17.70;99871.00;;;;5027894;28;20687;-46
2022/12/24 00:51:27;;;;;;;13.30;5.03;;;16.50;61.70;17.60;99942.00;;;;5028203;28;20270;-46
2022/12/24 00:53:52;;;;;;;10.10;4.10;;;16.50;61.90;17.60;99934.00;;;;5028605;28;20174;-48
2022/12/24 00:56:18;;;;;;;12.80;4.80;;;16.50;62.70;17.60;99857.00;;;;5028674;28;20178;-46
2022/12/24 00:58:44;;;;;;;8.10;4.20;;;16.50;61.80;17.60;99959.00;;;;5012623;28;20176;-46
2022/12/24 01:01:10;;;;;;;11.63;4.30;;;16.50;61.80;17.60;99892.00;;;;5011628;28;20199;-46
2022/12/24 01:03:35;;;;;;;10.63;4.37;;;16.50;61.90;17.60;99901.00;;;;5012003;28;20180;-45
2022/12/24 01:06:12;;;;;;;11.30;4.73;;;16.50;61.90;17.50;99982.00;;;;5028462;28;20571;-48
2022/12/24 01:08:37;;;;;;;12.23;4.67;;;16.40;62.10;17.50;99970.00;;;;5028493;28;20219;-45
2022/12/24 01:11:04;;;;;;;11.23;4.70;;;16.30;62.90;17.50;99972.00;;;;5028380;28;20277;-47
2022/12/24 01:13:30;;;;;;;13.87;5.10;;;16.40;62.20;17.50;99891.00;;;;5027770;28;20210;-46
2022/12/24 01:15:56;;;;;;;10.80;4.70;;;16.40;62.00;17.50;99972.00;;;;5012000;28;20177;-47
2022/12/24 01:18:22;;;;;;;13.57;4.80;;;16.40;62.10;17.50;99973.00;;;;5011913;28;20244;-47
2022/12/24 01:21:01;;;;;;;12.47;5.00;;;16.40;62.10;17.50;99991.00;;;;5028220;28;20164;-46
2022/12/24 01:23:28;;;;;;;11.87;4.60;;;16.50;62.30;17.50;99894.00;;;;5028475;28;20286;-47
2022/12/24 01:25:54;;;;;;;11.30;4.80;;;16.40;62.20;17.20;99976.00;;;;5028236;28;20163;-47
2022/12/24 01:28:20;;;;;;;13.23;4.60;;;16.40;62.30;17.50;99994.00;;;;5027886;28;20181;-46
2022/12/24 01:30:47;;;;;;;11.50;4.63;;;16.40;62.40;17.50;100003.00;;;;5027985;28;20258;-47
2022/12/24 01:33:12;;;;;;;12.83;4.50;;;16.40;62.60;17.40;100004.00;;;;5027524;28;20526;-47
2022/12/24 01:35:41;;;;;;;10.70;4.77;;;16.30;62.60;17.40;99896.00;;;;5011307;28;20183;-47
2022/12/24 01:38:07;;;;;;;10.27;4.43;;;16.30;62.70;17.40;99930.00;;;;5011413;28;20192;-47
2022/12/24 01:43:22;;;;;;;11.17;4.43;;;16.30;62.70;17.40;100007.00;;;;5027479;28;20699;-46
2022/12/24 01:45:50;;;;;;;12.10;4.60;;;16.30;62.70;17.30;100000.00;;;;5028245;28;20167;-46
2022/12/24 01:48:50;;;;;;;12.17;4.57;;;16.30;62.80;17.40;100005.00;;;;5027862;28;20179;-46
2022/12/24 01:51:19;;;;;;;11.40;4.50;;;16.30;62.70;17.40;100009.00;;;;5044041;28;20199;-46
2022/12/24 01:53:48;;;;;;;10.67;4.13;;;16.30;62.70;17.40;99956.00;;;;5027481;28;20171;-46
2022/12/24 01:56:14;;;;;;;10.93;4.67;;;16.30;62.70;17.40;100013.00;;;;5027715;28;20173;-47
2022/12/24 01:58:42;;;;;;;10.37;4.30;;;16.30;62.60;17.40;100010.00;;;;5010241;28;20537;-46
2022/12/24 02:01:08;;;;;;;12.03;4.30;;;16.30;62.70;17.40;100024.00;;;;5027788;28;20253;-47
2022/12/24 02:03:33;;;;;;;12.30;4.43;;;16.30;63.50;17.40;99927.00;;;;5027745;28;20168;-46
2022/12/24 02:05:59;;;;;;;10.27;4.77;;;16.30;62.70;17.40;99940.00;;;;5027987;28;20181;-46
2022/12/24 02:08:38;;;;;;;9.83;4.57;;;16.20;62.60;17.30;100015.00;;;;5011343;28;20271;-47
2022/12/24 02:11:12;;;;;;;10.47;4.67;;;16.20;62.80;17.30;100030.00;;;;5028273;28;20788;-47
2022/12/24 02:13:38;;;;;;;10.03;4.10;;;16.20;62.80;17.30;100032.00;;;;5027524;28;20251;-46
2022/12/24 02:16:23;;;;;;;8.57;4.27;;;16.20;62.70;17.30;100031.00;;;;5027621;28;20256;-47
2022/12/24 02:19:35;;;;;;;10.53;4.80;;;16.20;62.70;17.30;100042.00;;;;5027344;28;20194;-47
2022/12/24 02:22:17;;;;;;;12.13;4.90;;;16.20;62.70;17.20;100033.00;;;;5023820;28;20260;-46
2022/12/24 02:25:15;;;;;;;10.93;4.47;;;16.10;62.50;17.20;100032.00;;;;5018456;28;20164;-47
2022/12/24 02:27:56;;;;;;;12.30;4.60;;;16.10;63.50;17.20;100054.00;;;;5034588;28;20160;-47
2022/12/24 02:30:32;;;;;;;14.00;4.63;;;16.10;62.70;17.10;100048.00;;;;5028283;28;20183;-47
2022/12/24 02:33:12;;;;;;;9.97;4.30;;;16.10;62.70;17.10;100052.00;;;;5027014;28;20618;-47
2022/12/24 02:35:43;;;;;;;12.30;4.27;;;16.00;62.60;17.10;100054.00;;;;5027623;28;20182;-46
2022/12/24 02:38:12;;;;;;;11.33;4.60;;;16.10;62.50;17.10;99981.00;;;;5030433;28;20808;-47
2022/12/24 02:41:16;;;;;;;14.77;4.73;;;16.10;62.50;17.10;100058.00;;;;5035499;28;20210;-46
2022/12/24 02:43:43;;;;;;;10.90;4.33;;;16.10;62.50;17.10;99937.00;;;;5010971;28;20181;-47
2022/12/24 02:46:23;;;;;;;10.37;4.77;;;16.10;62.50;17.10;100065.00;;;;5027648;28;20178;-46
2022/12/24 02:48:48;;;;;;;10.63;4.37;;;16.00;62.40;17.10;99984.00;;;;5027034;28;20202;-46
2022/12/24 02:51:14;;;;;;;10.93;4.00;;;16.00;62.40;17.20;100079.00;;;;5026712;28;20226;-48
2022/12/24 02:53:40;;;;;;;11.23;4.53;;;16.00;62.40;17.10;100069.00;;;;5027349;28;20191;-47
2022/12/24 02:56:58;;;;;;;10.27;4.33;;;16.00;62.30;17.20;100078.00;;;;5027601;28;20179;-47
2022/12/24 02:59:50;;;;;;;10.83;4.30;;;16.00;62.40;17.20;100082.00;;;;5027410;28;20183;-47
2022/12/24 03:02:34;;;;;;;9.60;4.37;;;16.10;62.50;17.20;100043.00;;;;5010269;28;20208;-48
2022/12/24 03:05:35;;;;;;;10.70;4.20;;;16.00;62.40;17.20;100084.00;;;;5026939;28;20276;-46
2022/12/24 03:08:46;;;;;;;10.07;4.33;;;16.00;62.40;17.20;99989.00;;;;5027268;28;20216;-47
2022/12/24 03:11:14;;;;;;;14.50;4.83;;;16.00;62.40;17.10;100082.00;;;;5027180;28;20199;-47
2022/12/24 03:13:40;;;;;;;9.23;4.07;;;16.00;62.40;17.10;100083.00;;;;5030633;28;20201;-47
2022/12/24 03:16:08;;;;;;;13.17;5.03;;;16.00;62.40;17.10;100077.00;;;;5014107;28;20183;-46
2022/12/24 03:18:35;;;;;;;14.93;5.23;;;15.90;62.40;17.00;100002.00;;;;5014260;28;20206;-46
2022/12/24 03:21:15;;;;;;;15.80;5.03;;;15.80;62.90;17.00;100069.00;;;;5030657;28;20188;-47
2022/12/24 03:23:40;;;;;;;15.87;5.03;;;15.80;63.30;16.90;99993.00;;;;5030515;28;20193;-46
2022/12/24 03:26:08;;;;;;;12.80;4.63;;;15.70;62.90;16.90;100080.00;;;;5030781;28;20830;-47
2022/12/24 03:28:34;;;;;;;11.73;4.77;;;15.70;64.00;16.80;100088.00;;;;5014057;28;20194;-48
2022/12/24 03:31:02;;;;;;;12.37;4.50;;;15.60;63.20;16.80;100088.00;;;;5030253;28;20198;-47
2022/12/24 03:33:27;;;;;;;11.93;4.63;;;15.50;63.30;16.80;100093.00;;;;5030472;28;20194;-46
2022/12/24 03:35:53;;;;;;;11.67;5.07;;;15.60;63.50;16.80;100094.00;;;;5030434;28;20233;-47
2022/12/24 03:38:19;;;;;;;12.50;4.70;;;15.50;63.50;16.80;100104.00;;;;5030372;28;20182;-48
2022/12/24 03:40:45;;;;;;;14.17;5.13;;;15.50;63.60;16.80;99945.00;;;;5030115;28;20179;-47
2022/12/24 03:43:10;;;;;;;11.40;4.87;;;15.60;63.70;16.70;100108.00;;;;5013707;28;20226;-47
2022/12/24 03:45:36;;;;;;;10.00;4.30;;;15.50;63.60;16.70;100124.00;;;;5028982;28;20635;-47
2022/12/24 03:48:02;;;;;;;11.33;4.40;;;15.50;63.70;16.70;100115.00;;;;5030280;28;20187;-46
2022/12/24 03:50:27;;;;;;;11.83;4.00;;;15.50;63.70;16.70;100104.00;;;;5030243;28;20716;-47
2022/12/24 03:52:54;;;;;;;9.80;4.10;;;15.40;63.70;16.60;100106.00;;;;5013406;28;20540;-46
2022/12/24 03:55:19;;;;;;;11.00;3.77;;;15.50;64.00;16.60;100115.00;;;;5029590;28;20607;-47
2022/12/24 03:57:45;;;;;;;8.13;3.80;;;15.50;64.00;16.60;100116.00;;;;5030006;28;20175;-46
2022/12/24 04:00:11;;;;;;;8.07;3.57;;;15.40;63.90;16.60;100116.00;;;;5029925;28;20178;-47
2022/12/24 04:02:37;;;;;;;7.60;3.43;;;15.40;64.10;16.30;100124.00;;;;5029715;28;20590;-46
2022/12/24 04:05:03;;;;;;;8.93;3.67;;;15.40;64.80;16.60;100123.00;;;;5013209;28;20179;-46
2022/12/24 04:07:31;;;;;;;9.77;3.63;;;15.40;64.20;16.60;100047.00;;;;5029776;28;20179;-47
2022/12/24 04:09:56;;;;;;;6.60;3.60;;;15.40;64.40;16.50;100136.00;;;;5029208;28;20816;-46
2022/12/24 04:12:22;;;;;;;7.23;3.27;;;15.40;64.30;16.50;100132.00;;;;5030816;28;20194;-47
2022/12/24 04:14:49;;;;;;;7.30;3.50;;;15.40;64.30;16.50;100130.00;;;;5029810;28;20171;-46
2022/12/24 04:17:15;;;;;;;8.40;3.20;;;15.30;64.30;16.50;100042.00;;;;5013273;28;20269;-46
2022/12/24 04:19:40;;;;;;;6.17;3.17;;;15.30;64.40;16.50;100137.00;;;;5013024;28;20218;-46
2022/12/24 04:22:06;;;;;;;8.20;3.70;;;15.30;64.30;16.50;100101.00;;;;5030267;28;20277;-46
2022/12/24 04:24:32;;;;;;;8.63;3.40;;;15.30;64.30;16.40;100134.00;;;;5027921;28;20186;-48
2022/12/24 04:26:58;;;;;;;7.17;3.00;;;15.30;64.30;16.40;100145.00;;;;5012807;28;20175;-46
2022/12/24 04:29:23;;;;;;;7.00;2.87;;;15.30;64.30;16.40;100132.00;;;;5012758;28;20195;-46
2022/12/24 04:31:49;;;;;;;6.93;3.40;;;15.30;64.10;16.40;100063.00;;;;5028561;28;20199;-47
2022/12/24 04:34:15;;;;;;;7.40;3.00;;;15.30;63.90;16.40;100142.00;;;;5028999;28;20178;-46
2022/12/24 04:36:40;;;;;;;6.03;2.97;;;15.30;63.70;16.30;100136.00;;;;5029320;28;20175;-46
2022/12/24 04:39:06;;;;;;;10.43;3.47;;;15.30;63.90;16.30;100127.00;;;;5030548;28;20233;-47
2022/12/24 04:41:32;;;;;;;5.60;2.97;;;15.30;64.00;16.30;100145.00;;;;5028872;28;20241;-48
2022/12/24 04:43:58;;;;;;;6.83;2.67;;;15.30;63.80;16.30;100151.00;;;;5030347;28;20174;-46
2022/12/24 04:46:29;;;;;;;6.93;3.00;;;15.20;63.70;16.30;100158.00;;;;5028875;28;20171;-47
2022/12/24 04:48:55;;;;;;;6.00;2.67;;;15.30;63.70;16.30;100069.00;;;;5028861;28;20209;-46
2022/12/24 04:51:21;;;;;;;7.17;2.90;;;15.20;63.70;16.30;100154.00;;;;5028234;28;20195;-47
2022/12/24 04:53:47;;;;;;;5.47;2.73;;;15.10;64.10;16.30;100168.00;;;;5028799;28;20273;-47
2022/12/24 04:56:15;;;;;;;6.67;3.10;;;15.20;64.10;16.30;100157.00;;;;5012002;28;20261;-46
2022/12/24 04:58:41;;;;;;;8.37;3.00;;;15.10;64.20;16.30;100172.00;;;;5028802;28;20186;-47
2022/12/24 05:01:07;;;;;;;7.90;3.30;;;15.10;64.10;16.30;100074.00;;;;5029358;28;20191;-46
2022/12/24 05:03:34;;;;;;;9.33;3.37;;;15.10;64.20;16.30;100170.00;;;;4995657;28;20274;-46
2022/12/24 05:06:04;;;;;;;9.27;2.87;;;15.10;64.10;16.30;100162.00;;;;5028803;28;20178;-47
2022/12/24 05:08:29;;;;;;;10.27;3.27;;;15.10;64.20;16.30;100168.00;;;;5012376;28;20590;-47
2022/12/24 05:10:59;;;;;;;8.60;2.80;;;15.20;64.20;16.30;100077.00;;;;5028608;28;20212;-47
2022/12/24 05:13:24;;;;;;;9.70;3.23;;;15.20;64.30;16.30;100173.00;;;;5012020;28;20269;-47
2022/12/24 05:15:50;;;;;;;7.30;3.10;;;15.20;64.20;16.30;100100.00;;;;5012053;28;20609;-46
2022/12/24 05:18:16;;;;;;;5.80;2.67;;;15.20;64.20;16.30;100182.00;;;;5015823;28;20190;-46
2022/12/24 05:20:42;;;;;;;5.97;2.80;;;15.10;64.10;16.30;100105.00;;;;5040225;28;20190;-46
2022/12/24 05:28:45;;;;;;;7.17;3.40;;;15.10;64.20;16.30;100182.00;;;;5031324;28;20250;-46
2022/12/24 05:31:11;;;;;;;7.67;3.20;;;15.10;64.50;16.30;100186.00;;;;4983862;28;20227;-46
2022/12/24 05:33:36;;;;;;;6.70;3.27;;;15.10;64.50;16.30;100191.00;;;;5008148;28;20176;-47
2022/12/24 05:36:02;;;;;;;7.07;3.00;;;15.20;65.20;16.30;100192.00;;;;5008014;28;20255;-47
2022/12/24 05:38:28;;;;;;;5.50;2.83;;;15.20;64.20;16.30;100194.00;;;;5008175;28;20295;-47
2022/12/24 05:40:53;;;;;;;8.73;3.30;;;15.20;64.20;16.30;100188.00;;;;4992474;28;20581;-46
2022/12/24 05:43:19;;;;;;;5.13;2.93;;;15.10;64.20;16.30;100211.00;;;;4991814;28;20176;-47
2022/12/24 05:45:45;;;;;;;6.50;2.73;;;15.10;64.30;16.30;100120.00;;;;5008171;28;20708;-47
2022/12/24 05:48:11;;;;;;;7.70;3.53;;;15.20;64.20;16.30;100191.00;;;;4976423;28;20203;-47
2022/12/24 05:50:38;;;;;;;7.57;3.20;;;15.10;64.30;16.30;100179.00;;;;4976260;28;20919;-47
2022/12/24 05:53:05;;;;;;;6.67;3.00;;;15.10;64.60;16.30;100115.00;;;;4975991;28;20175;-47
2022/12/24 05:55:31;;;;;;;6.43;3.17;;;15.20;64.70;16.30;100116.00;;;;4959631;28;20183;-47
2022/12/24 05:57:56;;;;;;;7.33;3.23;;;15.10;64.40;16.30;100204.00;;;;4960322;28;20176;-47
2022/12/24 06:00:22;;;;;;;6.70;3.30;;;15.10;64.50;16.30;100210.00;;;;4991353;28;20179;-47
2022/12/24 06:02:48;;;;;;;7.33;3.13;;;15.10;64.50;16.30;100129.00;;;;5008920;28;20192;-47
2022/12/24 06:05:14;;;;;;;7.40;3.00;;;15.20;64.50;16.30;100204.00;;;;4975888;28;20233;-47
2022/12/24 06:07:39;;;;;;;6.87;3.23;;;15.10;64.50;16.10;100212.00;;;;4976563;28;20242;-47
2022/12/24 06:10:06;;;;;;;7.40;3.13;;;15.10;64.60;16.30;100218.00;;;;4960156;28;20680;-47
2022/12/24 06:12:32;;;;;;;6.83;3.07;;;15.10;64.70;16.30;100129.00;;;;4991520;28;20203;-47
2022/12/24 06:14:58;;;;;;;8.23;3.50;;;15.10;64.70;16.30;100222.00;;;;4991137;28;20179;-47
2022/12/24 06:17:23;;;;;;;7.10;3.17;;;15.20;64.60;16.30;100140.00;;;;4992531;28;20163;-47
2022/12/24 06:19:49;;;;;;;6.53;2.90;;;15.10;64.60;16.30;100227.00;;;;4960317;28;20195;-48
2022/12/24 06:22:15;;;;;;;7.83;3.17;;;15.10;64.60;16.30;100224.00;;;;4975594;28;20203;-48
2022/12/24 06:24:40;;;;;;;6.53;2.80;;;15.10;64.70;16.30;100146.00;;;;4976087;28;20180;-47
2022/12/24 06:27:06;;;;;;;7.37;3.23;;;15.10;64.70;16.30;100249.00;;;;4960373;28;20183;-47
2022/12/24 06:29:32;;;;;;;8.10;3.73;;;15.10;64.70;16.30;100215.00;;;;4991716;28;20245;-47
2022/12/24 06:31:58;;;;;;;7.60;3.13;;;15.10;65.40;16.30;100151.00;;;;4991518;28;20192;-47
2022/12/24 06:34:23;;;;;;;7.63;3.37;;;15.10;64.80;16.30;100240.00;;;;4992057;28;20197;-48
2022/12/24 06:36:49;;;;;;;10.03;3.73;;;15.10;65.00;16.30;100236.00;;;;4976103;28;20230;-47
2022/12/24 06:39:15;;;;;;;7.93;3.57;;;15.10;64.90;16.30;100246.00;;;;4997243;28;20171;-48
2022/12/24 06:41:40;;;;;;;7.97;3.40;;;15.20;64.90;16.30;100237.00;;;;4983345;28;20265;-47
2022/12/24 06:44:07;;;;;;;7.77;3.50;;;15.10;64.90;16.30;100242.00;;;;4999367;28;20180;-46
2022/12/24 06:46:33;;;;;;;9.17;3.53;;;15.10;65.00;16.30;100246.00;;;;4962448;28;20203;-46
2022/12/24 06:48:58;;;;;;;6.60;3.43;;;15.10;64.90;16.30;100260.00;;;;4979766;28;20258;-46
2022/12/24 06:51:24;;;;;;;7.43;3.53;;;15.10;65.00;16.30;100264.00;;;;4979083;28;20192;-47
2022/12/24 06:53:50;;;;;;;10.40;3.83;;;15.00;64.90;16.30;100266.00;;;;4979665;28;20176;-46
2022/12/24 06:56:16;;;;;;;7.27;3.43;;;15.10;65.00;16.30;100194.00;;;;5012109;28;20182;-47
2022/12/24 06:58:43;;;;;;;9.00;3.50;;;15.10;64.90;16.30;100264.00;;;;4963422;28;20271;-47
2022/12/24 07:01:11;;;;;;;7.77;3.60;;;15.20;64.90;16.30;100283.00;;;;4979163;28;20199;-46
2022/12/24 07:03:37;;;;;;;7.87;3.43;;;15.10;65.00;16.30;100292.00;;;;4995677;28;20253;-46
2022/12/24 07:06:03;;;;;;;7.90;3.80;;;15.10;64.90;16.30;100283.00;;;;5011645;28;20700;-46
2022/12/24 07:08:32;;;;;;;6.80;3.47;;;15.10;64.90;16.30;100277.00;;;;5013157;28;20184;-47
2022/12/24 07:10:58;;;;;;;10.33;3.57;;;15.10;64.90;16.30;100275.00;;;;4996714;28;20199;-47
2022/12/24 07:13:23;;;;;;;6.30;3.50;;;15.20;64.90;16.30;100281.00;;;;4995111;28;20275;-46
2022/12/24 07:16:00;;;;;;;9.00;3.37;;;15.30;64.90;16.40;100191.00;;;;5011491;28;20620;-47
2022/12/24 07:18:25;;;;;;;11.27;3.27;;;15.30;64.90;16.40;100280.00;;;;4979689;28;20257;-46
2022/12/24 07:20:51;;;;;;;7.83;3.13;;;15.30;65.30;16.40;100271.00;;;;4979809;28;20739;-47
2022/12/24 07:23:17;;;;;;;11.70;3.50;;;15.30;65.10;16.40;100268.00;;;;5011042;28;20184;-46
2022/12/24 07:25:42;;;;;;;7.67;3.20;;;15.50;65.20;16.50;100205.00;;;;4978982;28;20175;-47
2022/12/24 07:28:08;;;;;;;8.13;3.10;;;15.60;65.00;16.50;100282.00;;;;4994870;28;20203;-47
2022/12/24 07:30:34;;;;;;;11.03;3.77;;;15.70;64.80;16.60;100275.00;;;;4994950;28;20261;-47
2022/12/24 07:33:00;;;;;;;9.33;3.43;;;15.90;64.90;16.70;100293.00;;;;5010472;28;20218;-47
2022/12/24 07:35:26;;;;;;;5.60;3.20;;;16.00;64.60;16.70;100294.00;;;;5011823;28;20208;-47
2022/12/24 07:37:51;;;;;;;8.40;3.10;;;16.10;64.30;16.80;100287.00;;;;4994751;28;20212;-47
2022/12/24 07:40:17;;;;;;;6.53;3.00;;;16.30;64.10;16.90;100308.00;;;;4978885;28;20172;-47
2022/12/24 07:42:43;;;;;;;4.27;2.90;;;16.40;63.80;17.00;100236.00;;;;5011431;28;20270;-47
2022/12/24 07:45:09;;;;;;;7.30;3.20;;;16.60;63.50;17.10;100300.00;;;;4994556;28;20165;-46
2022/12/24 07:47:35;;;;;;;5.90;3.27;;;16.70;63.40;17.20;100302.00;;;;4962940;28;20183;-47
2022/12/24 07:50:02;;;;;;;5.90;2.87;;;16.80;63.20;16.90;100303.00;;;;4962998;28;20295;-48
2022/12/24 07:52:27;;;;;;;7.10;3.17;;;16.90;63.10;17.40;100253.00;;;;5010655;28;20192;-47
2022/12/24 07:54:53;;;;;;;5.73;2.93;;;17.00;62.90;17.50;100312.00;;;;4978406;28;20454;-47
2022/12/24 07:57:19;;;;;;;7.17;3.10;;;17.10;62.90;17.50;100318.00;;;;4962643;28;20549;-47
2022/12/24 07:59:45;;;;;;;6.87;3.10;;;17.10;62.70;17.60;100322.00;;;;4995392;28;20781;-48
2022/12/24 08:02:10;;;;;;;7.20;2.80;;;17.10;62.70;17.70;100224.00;;;;5013821;28;20200;-47
2022/12/24 08:04:36;;;;;;;5.20;2.83;;;17.20;62.80;17.70;100325.00;;;;4996183;28;20176;-46
2022/12/24 08:07:05;;;;;;;8.43;3.10;;;17.20;62.80;17.70;100324.00;;;;4966192;28;20176;-49
2022/12/24 08:09:34;;;;;;;6.33;3.07;;;17.20;62.80;17.80;100334.00;;;;4994713;28;20199;-48
2022/12/24 08:12:01;;;;;;;5.90;2.87;;;17.20;62.90;17.80;100334.00;;;;4978059;28;20199;-47
2022/12/24 08:14:30;;;;;;;7.03;3.00;;;17.20;63.00;17.80;100346.00;;;;4993649;28;20183;-48
2022/12/24 08:16:56;;;;;;;7.27;3.10;;;17.30;63.00;17.90;100273.00;;;;4992608;28;20668;-47
2022/12/24 08:19:23;;;;;;;7.33;3.10;;;17.30;63.50;17.90;100245.00;;;;4993103;28;20221;-47
2022/12/24 08:21:48;;;;;;;6.47;3.00;;;17.30;63.80;17.90;100353.00;;;;4977606;28;20567;-47
2022/12/24 08:24:14;;;;;;;6.43;3.30;;;17.30;63.60;17.90;100357.00;;;;5009740;28;20180;-47
2022/12/24 08:26:40;;;;;;;9.07;3.07;;;17.30;64.20;18.00;100271.00;;;;4961775;28;20215;-47
2022/12/24 08:29:05;;;;;;;7.67;3.30;;;17.30;63.30;18.00;100357.00;;;;4962015;28;20213;-47
2022/12/24 08:31:35;;;;;;;7.10;3.13;;;17.30;63.30;18.00;100354.00;;;;4994030;28;20208;-47
2022/12/24 08:34:05;;;;;;;7.17;3.13;;;17.30;63.40;18.00;100365.00;;;;4978995;28;20706;-47
2022/12/24 08:36:31;;;;;;;5.97;2.93;;;17.30;63.40;18.00;100365.00;;;;4978209;28;20301;-47
2022/12/24 08:38:57;;;;;;;5.47;2.83;;;17.30;63.40;18.00;100358.00;;;;4978026;28;20550;-47
2022/12/24 08:41:23;;;;;;;5.00;2.87;;;17.30;63.40;18.00;100367.00;;;;4993011;28;20207;-47
2022/12/24 08:43:49;;;;;;;6.10;3.10;;;17.30;63.40;18.00;100273.00;;;;4993944;28;20190;-47
2022/12/24 08:46:14;;;;;;;6.27;2.93;;;17.30;63.40;18.00;100288.00;;;;4993755;28;20724;-50
2022/12/24 08:48:40;;;;;;;6.60;3.00;;;17.30;63.40;18.00;100373.00;;;;4977392;28;20531;-47
2022/12/24 08:51:08;;;;;;;5.27;2.80;;;17.20;63.40;18.00;100374.00;;;;4992304;28;20196;-48
2022/12/24 08:53:34;;;;;;;6.83;3.17;;;17.20;63.40;18.00;100376.00;;;;5008784;28;20165;-47
2022/12/24 08:56:08;;;;;;;8.87;2.90;;;17.20;63.80;18.00;100306.00;;;;5010209;28;20183;-48
2022/12/24 08:58:33;;;;;;;8.67;2.93;;;17.20;63.90;18.00;100295.00;;;;4960987;28;20634;-47
2022/12/24 09:00:59;;;;;;;8.47;3.00;;;17.20;63.90;18.00;100288.00;;;;4976568;28;20273;-48
2022/12/24 09:03:25;;;;;;;9.80;2.80;;;17.20;64.20;18.00;100379.00;;;;4987810;28;20857;-47
2022/12/24 09:05:52;;;;;;;10.30;2.90;;;17.10;64.10;18.00;100387.00;;;;5009398;28;20229;-47
2022/12/24 09:08:19;;;;;;;16.70;3.53;;;17.20;64.20;18.00;100395.00;;;;5010273;28;20665;-45
2022/12/24 09:10:45;;;;;;;13.90;3.07;;;17.10;64.80;18.00;100392.00;;;;5010096;28;20636;-47
2022/12/24 09:13:11;;;;;;;12.57;3.10;;;17.10;64.60;18.00;100311.00;;;;4992615;28;20204;-47
2022/12/24 09:15:37;;;;;;;8.43;3.03;;;17.10;64.60;18.00;100400.00;;;;4976653;28;20275;-47
2022/12/24 09:18:03;;;;;;;10.80;3.00;;;17.20;64.60;18.00;100399.00;;;;5009540;28;20191;-47
2022/12/24 09:20:28;;;;;;;10.13;2.93;;;17.20;64.70;18.00;100416.00;;;;4993285;28;20213;-47
2022/12/24 09:22:54;;;;;;;12.90;3.00;;;17.20;64.50;18.00;100415.00;;;;5008637;28;20197;-47
2022/12/24 09:25:20;;;;;;;8.33;2.87;;;17.20;64.40;18.00;100422.00;;;;5009357;28;20188;-47
2022/12/24 09:27:46;;;;;;;14.07;2.77;;;17.10;64.40;18.00;100377.00;;;;5008420;28;20200;-46
2022/12/24 09:30:12;;;;;;;13.17;2.60;;;17.10;64.60;18.00;100432.00;;;;5007833;28;20293;-47
2022/12/24 09:32:38;;;;;;;7.63;2.60;;;17.20;65.00;18.00;100428.00;;;;5008355;28;20196;-46
2022/12/24 09:35:04;;;;;;;8.27;2.53;;;17.20;64.50;18.00;100436.00;;;;4991572;28;20267;-48
2022/12/24 09:37:30;;;;;;;6.10;2.40;;;17.20;64.60;18.00;100447.00;;;;4982549;28;20173;-47
2022/12/24 09:39:55;;;;;;;7.33;2.50;;;17.10;64.50;18.00;100455.00;;;;4998271;28;20172;-46
2022/12/24 09:42:50;;;;;;;6.00;2.90;;;17.10;64.50;18.00;100455.00;;;;5011498;28;20255;-47
2022/12/24 09:45:32;;;;;;;6.63;2.90;;;17.00;64.50;17.90;100471.00;;;;5007986;28;20244;-46
2022/12/24 09:48:22;;;;;;;6.53;2.80;;;17.00;64.50;17.90;100474.00;;;;5007232;28;20557;-47
2022/12/24 09:51:06;;;;;;;6.67;2.37;;;17.00;64.50;17.90;100482.00;;;;4980163;28;20286;-47
2022/12/24 09:53:37;;;;;;;5.23;2.27;;;17.00;64.60;17.90;100427.00;;;;4987354;28;20173;-47
2022/12/24 09:56:19;;;;;;;8.83;2.40;;;17.00;65.40;17.90;100478.00;;;;4992534;28;20181;-46
2022/12/24 09:59:02;;;;;;;7.40;2.70;;;17.00;65.50;17.90;100482.00;;;;5008320;28;20630;-46
2022/12/24 10:01:30;;;;;;;10.60;3.17;;;17.00;65.40;17.90;100468.00;;;;5007708;28;20197;-46
2022/12/24 10:03:59;;;;;;;8.33;2.90;;;17.00;65.40;17.90;100473.00;;;;5007354;28;20204;-45
2022/12/24 10:06:37;;;;;;;8.13;2.83;;;17.00;65.40;17.80;100470.00;;;;4991593;28;20259;-45
2022/12/24 10:09:23;;;;;;;9.63;2.70;;;17.00;65.30;17.80;100478.00;;;;5007992;28;20187;-46
2022/12/24 10:12:24;;;;;;;11.27;2.67;;;17.00;65.50;17.80;100489.00;;;;5008208;28;20203;-46
2022/12/24 10:14:59;;;;;;;9.57;2.67;;;17.00;65.80;17.80;100492.00;;;;4970390;28;20177;-47
2022/12/24 10:17:47;;;;;;;10.67;3.07;;;17.00;65.70;17.80;100492.00;;;;5007805;28;20175;-46
2022/12/24 10:20:21;;;;;;;12.87;3.23;;;17.00;65.60;17.70;100423.00;;;;5009459;28;20626;-46
2022/12/24 10:23:09;;;;;;;9.53;2.93;;;17.00;65.80;17.70;100407.00;;;;5012123;28;20216;-47
2022/12/24 10:25:44;;;;;;;13.03;3.43;;;16.90;65.50;17.70;100500.00;;;;4995468;28;20184;-46
2022/12/24 10:28:31;;;;;;;7.67;2.70;;;17.00;65.40;17.60;100494.00;;;;4996138;28;20187;-48
2022/12/24 10:31:00;;;;;;;12.03;2.83;;;17.00;65.40;17.70;100492.00;;;;4994979;28;20736;-45
2022/12/24 10:33:31;;;;;;;11.73;3.17;;;17.00;65.60;17.70;100434.00;;;;5011485;28;20175;-47
2022/12/24 10:35:57;;;;;;;9.27;2.63;;;17.00;65.70;17.70;100422.00;;;;5011756;28;20183;-46
2022/12/24 10:38:23;;;;;;;7.50;2.83;;;16.90;65.60;17.70;100413.00;;;;5012012;28;20250;-46
2022/12/24 10:40:54;;;;;;;8.63;3.03;;;17.00;65.60;17.70;100498.00;;;;5011365;28;20245;-48
2022/12/24 10:43:23;;;;;;;11.80;3.17;;;17.00;65.50;17.70;100484.00;;;;4995252;28;20823;-49
2022/12/24 10:46:00;;;;;;;11.50;2.93;;;17.00;65.50;17.60;100496.00;;;;4995515;28;20181;-48
2022/12/24 10:48:41;;;;;;;8.93;3.00;;;17.00;65.40;17.60;100499.00;;;;5016779;28;20174;-48
2022/12/24 10:51:50;;;;;;;10.40;3.50;;;17.00;65.90;17.70;100504.00;;;;5020321;28;20262;-47
2022/12/24 10:54:26;;;;;;;8.27;2.97;;;17.00;65.90;17.60;100500.00;;;;5009396;28;20266;-47
2022/12/24 10:56:56;;;;;;;9.53;3.07;;;17.00;65.90;17.60;100502.00;;;;5019333;28;20199;-47
2022/12/24 10:59:38;;;;;;;10.47;3.00;;;16.90;66.00;17.60;100497.00;;;;5020094;28;20173;-48
2022/12/24 11:02:28;;;;;;;8.57;3.10;;;17.00;66.20;17.60;100470.00;;;;5017900;28;20195;-47
2022/12/24 11:04:54;;;;;;;8.93;2.97;;;17.00;66.20;17.60;100402.00;;;;5011097;28;20323;-48